sensor_id;sensor_type;location;lat;lon;timestamp;P1;durP1;ratioP1;P2;durP2;ratioP2
48522;SDS011;34315;50.150;11.070;2022-10-24T00:03:10;7.63;;;3.97;;
48522;SDS011;34315;50.150;11.070;2022-10-24T00:08:10;10.30;;;4.22;;
48522;SDS011;34315;50.150;11.070;2022-10-24T00:13:12;12.23;;;3.70;;
48522;SDS011;34315;50.150;11.070;2022-10-24T00:18:13;9.00;;;4.07;;
48522;SDS011;34315;50.150;11.070;2022-10-24T00:23:14;10.52;;;3.78;;
48522;SDS011;34315;50.150;11.070;2022-10-24T00:28:14;10.32;;;4.43;;
48522;SDS011;34315;50.150;11.070;2022-10-24T00:33:15;9.60;;;4.05;;
48522;SDS011;34315;50.150;11.070;2022-10-24T00:38:15;6.57;;;3.80;;
48522;SDS011;34315;50.150;11.070;2022-10-24T00:43:20;9.20;;;4.65;;
48522;SDS011;34315;50.150;11.070;2022-10-24T00:53:34;8.60;;;3.63;;
48522;SDS011;34315;50.150;11.070;2022-10-24T00:58:37;6.47;;;3.20;;
48522;SDS011;34315;50.150;11.070;2022-10-24T01:03:39;10.00;;;3.60;;
48522;SDS011;34315;50.150;11.070;2022-10-24T01:14:02;7.72;;;3.97;;
48522;SDS011;34315;50.150;11.070;2022-10-24T01:30:06;8.90;;;3.67;;
48522;SDS011;34315;50.150;11.070;2022-10-24T01:40:27;9.23;;;3.33;;
48522;SDS011;34315;50.150;11.070;2022-10-24T01:45:32;9.07;;;3.42;;
48522;SDS011;34315;50.150;11.070;2022-10-24T01:50:34;7.72;;;3.97;;
48522;SDS011;34315;50.150;11.070;2022-10-24T01:55:35;7.18;;;3.33;;
48522;SDS011;34315;50.150;11.070;2022-10-24T02:00:37;6.75;;;3.17;;
48522;SDS011;34315;50.150;11.070;2022-10-24T02:05:58;7.75;;;3.17;;
48522;SDS011;34315;50.150;11.070;2022-10-24T02:11:03;8.47;;;3.87;;
48522;SDS011;34315;50.150;11.070;2022-10-24T02:16:06;11.15;;;3.13;;
48522;SDS011;34315;50.150;11.070;2022-10-24T02:21:11;8.02;;;3.67;;
48522;SDS011;34315;50.150;11.070;2022-10-24T02:26:50;8.95;;;3.75;;
48522;SDS011;34315;50.150;11.070;2022-10-24T02:31:47;8.02;;;3.40;;
48522;SDS011;34315;50.150;11.070;2022-10-24T02:36:53;10.93;;;3.35;;
48522;SDS011;34315;50.150;11.070;2022-10-24T02:41:55;5.85;;;3.05;;
48522;SDS011;34315;50.150;11.070;2022-10-24T02:46:57;7.75;;;3.72;;
48522;SDS011;34315;50.150;11.070;2022-10-24T02:51:58;6.15;;;2.97;;
48522;SDS011;34315;50.150;11.070;2022-10-24T02:57:00;11.20;;;3.50;;
48522;SDS011;34315;50.150;11.070;2022-10-24T03:02:03;6.88;;;3.08;;
48522;SDS011;34315;50.150;11.070;2022-10-24T03:07:04;5.30;;;3.10;;
48522;SDS011;34315;50.150;11.070;2022-10-24T03:12:06;13.15;;;3.13;;
48522;SDS011;34315;50.150;11.070;2022-10-24T03:17:06;10.48;;;3.33;;
48522;SDS011;34315;50.150;11.070;2022-10-24T03:22:07;6.43;;;3.33;;
48522;SDS011;34315;50.150;11.070;2022-10-24T03:27:07;7.53;;;3.20;;
48522;SDS011;34315;50.150;11.070;2022-10-24T03:32:08;9.23;;;3.10;;
48522;SDS011;34315;50.150;11.070;2022-10-24T03:37:08;6.47;;;2.80;;
48522;SDS011;34315;50.150;11.070;2022-10-24T03:42:08;7.75;;;2.88;;
48522;SDS011;34315;50.150;11.070;2022-10-24T03:47:09;5.60;;;2.78;;
48522;SDS011;34315;50.150;11.070;2022-10-24T03:52:10;5.97;;;2.90;;
48522;SDS011;34315;50.150;11.070;2022-10-24T03:57:10;6.28;;;2.95;;
48522;SDS011;34315;50.150;11.070;2022-10-24T04:02:11;8.13;;;2.90;;
48522;SDS011;34315;50.150;11.070;2022-10-24T04:07:13;6.80;;;2.83;;
48522;SDS011;34315;50.150;11.070;2022-10-24T04:12:13;6.35;;;3.40;;
48522;SDS011;34315;50.150;11.070;2022-10-24T04:17:14;5.43;;;3.13;;
48522;SDS011;34315;50.150;11.070;2022-10-24T04:22:14;10.65;;;4.32;;
48522;SDS011;34315;50.150;11.070;2022-10-24T04:27:15;8.60;;;3.50;;
48522;SDS011;34315;50.150;11.070;2022-10-24T04:32:15;7.82;;;3.38;;
48522;SDS011;34315;50.150;11.070;2022-10-24T04:37:16;6.35;;;3.17;;
48522;SDS011;34315;50.150;11.070;2022-10-24T04:42:16;10.70;;;3.85;;
48522;SDS011;34315;50.150;11.070;2022-10-24T04:47:17;7.05;;;3.75;;
48522;SDS011;34315;50.150;11.070;2022-10-24T04:52:17;9.65;;;3.72;;
48522;SDS011;34315;50.150;11.070;2022-10-24T04:57:18;7.45;;;2.70;;
48522;SDS011;34315;50.150;11.070;2022-10-24T05:02:18;6.35;;;3.47;;
48522;SDS011;34315;50.150;11.070;2022-10-24T05:07:18;7.03;;;3.38;;
48522;SDS011;34315;50.150;11.070;2022-10-24T05:12:20;6.35;;;3.40;;
48522;SDS011;34315;50.150;11.070;2022-10-24T05:17:21;7.85;;;3.70;;
48522;SDS011;34315;50.150;11.070;2022-10-24T05:22:21;7.45;;;3.17;;
48522;SDS011;34315;50.150;11.070;2022-10-24T05:27:23;8.88;;;4.30;;
48522;SDS011;34315;50.150;11.070;2022-10-24T05:32:26;7.60;;;4.43;;
48522;SDS011;34315;50.150;11.070;2022-10-24T05:37:26;7.80;;;3.88;;
48522;SDS011;34315;50.150;11.070;2022-10-24T05:42:27;6.82;;;3.70;;
48522;SDS011;34315;50.150;11.070;2022-10-24T05:47:27;17.13;;;7.40;;
48522;SDS011;34315;50.150;11.070;2022-10-24T05:52:27;11.18;;;5.03;;
48522;SDS011;34315;50.150;11.070;2022-10-24T05:57:28;19.70;;;4.40;;
48522;SDS011;34315;50.150;11.070;2022-10-24T06:02:29;9.98;;;4.60;;
48522;SDS011;34315;50.150;11.070;2022-10-24T06:07:29;9.57;;;3.67;;
48522;SDS011;34315;50.150;11.070;2022-10-24T06:12:30;12.00;;;5.35;;
48522;SDS011;34315;50.150;11.070;2022-10-24T06:17:32;9.00;;;4.70;;
48522;SDS011;34315;50.150;11.070;2022-10-24T06:22:32;10.77;;;4.47;;
48522;SDS011;34315;50.150;11.070;2022-10-24T06:27:33;13.77;;;3.90;;
48522;SDS011;34315;50.150;11.070;2022-10-24T06:32:33;10.48;;;5.20;;
48522;SDS011;34315;50.150;11.070;2022-10-24T06:37:33;8.60;;;4.50;;
48522;SDS011;34315;50.150;11.070;2022-10-24T06:42:35;6.07;;;3.97;;
48522;SDS011;34315;50.150;11.070;2022-10-24T06:47:35;13.23;;;4.03;;
48522;SDS011;34315;50.150;11.070;2022-10-24T06:52:36;8.00;;;3.40;;
48522;SDS011;34315;50.150;11.070;2022-10-24T06:57:36;8.13;;;3.10;;
48522;SDS011;34315;50.150;11.070;2022-10-24T07:02:37;9.27;;;2.67;;
48522;SDS011;34315;50.150;11.070;2022-10-24T07:07:37;5.70;;;2.72;;
48522;SDS011;34315;50.150;11.070;2022-10-24T07:12:39;7.55;;;3.53;;
48522;SDS011;34315;50.150;11.070;2022-10-24T07:17:40;10.20;;;3.60;;
48522;SDS011;34315;50.150;11.070;2022-10-24T07:22:41;8.10;;;3.72;;
48522;SDS011;34315;50.150;11.070;2022-10-24T07:27:44;10.82;;;4.97;;
48522;SDS011;34315;50.150;11.070;2022-10-24T07:32:44;9.38;;;4.10;;
48522;SDS011;34315;50.150;11.070;2022-10-24T07:37:45;9.32;;;3.72;;
48522;SDS011;34315;50.150;11.070;2022-10-24T07:42:45;9.55;;;3.78;;
48522;SDS011;34315;50.150;11.070;2022-10-24T07:47:46;11.18;;;3.95;;
48522;SDS011;34315;50.150;11.070;2022-10-24T07:52:47;8.45;;;3.42;;
48522;SDS011;34315;50.150;11.070;2022-10-24T07:57:47;9.93;;;4.80;;
48522;SDS011;34315;50.150;11.070;2022-10-24T08:02:48;12.60;;;4.80;;
48522;SDS011;34315;50.150;11.070;2022-10-24T08:07:48;15.43;;;5.38;;
48522;SDS011;34315;50.150;11.070;2022-10-24T08:12:49;8.65;;;4.75;;
48522;SDS011;34315;50.150;11.070;2022-10-24T08:17:50;9.02;;;3.63;;
48522;SDS011;34315;50.150;11.070;2022-10-24T08:22:51;9.82;;;3.92;;
48522;SDS011;34315;50.150;11.070;2022-10-24T08:27:52;7.63;;;3.38;;
48522;SDS011;34315;50.150;11.070;2022-10-24T08:32:52;9.38;;;3.25;;
48522;SDS011;34315;50.150;11.070;2022-10-24T08:37:52;11.07;;;4.47;;
48522;SDS011;34315;50.150;11.070;2022-10-24T08:42:53;9.93;;;4.05;;
48522;SDS011;34315;50.150;11.070;2022-10-24T08:47:59;10.40;;;4.10;;
48522;SDS011;34315;50.150;11.070;2022-10-24T08:58:28;15.63;;;4.68;;
48522;SDS011;34315;50.150;11.070;2022-10-24T09:03:32;8.85;;;4.22;;
48522;SDS011;34315;50.150;11.070;2022-10-24T09:13:54;14.50;;;4.95;;
48522;SDS011;34315;50.150;11.070;2022-10-24T09:18:55;11.48;;;5.22;;
48522;SDS011;34315;50.150;11.070;2022-10-24T09:23:56;12.52;;;5.20;;
48522;SDS011;34315;50.150;11.070;2022-10-24T09:28:57;11.82;;;4.95;;
48522;SDS011;34315;50.150;11.070;2022-10-24T09:33:57;12.10;;;4.38;;
48522;SDS011;34315;50.150;11.070;2022-10-24T09:39:13;10.15;;;3.72;;
48522;SDS011;34315;50.150;11.070;2022-10-24T09:44:33;6.65;;;3.30;;
48522;SDS011;34315;50.150;11.070;2022-10-24T09:49:37;8.45;;;3.40;;
48522;SDS011;34315;50.150;11.070;2022-10-24T09:54:40;7.82;;;3.78;;
48522;SDS011;34315;50.150;11.070;2022-10-24T10:10:03;17.40;;;8.73;;
48522;SDS011;34315;50.150;11.070;2022-10-24T10:15:16;21.02;;;10.70;;
48522;SDS011;34315;50.150;11.070;2022-10-24T10:20:34;9.73;;;3.72;;
48522;SDS011;34315;50.150;11.070;2022-10-24T10:25:38;12.55;;;4.43;;
48522;SDS011;34315;50.150;11.070;2022-10-24T10:30:38;15.98;;;4.57;;
48522;SDS011;34315;50.150;11.070;2022-10-24T10:35:51;13.38;;;4.82;;
48522;SDS011;34315;50.150;11.070;2022-10-24T10:41:05;11.02;;;4.60;;
48522;SDS011;34315;50.150;11.070;2022-10-24T10:52:05;10.43;;;4.00;;
48522;SDS011;34315;50.150;11.070;2022-10-24T10:57:20;6.97;;;2.33;;
48522;SDS011;34315;50.150;11.070;2022-10-24T11:02:34;3.13;;;1.70;;
48522;SDS011;34315;50.150;11.070;2022-10-24T11:07:54;3.45;;;1.58;;
48522;SDS011;34315;50.150;11.070;2022-10-24T11:13:03;6.88;;;2.25;;
48522;SDS011;34315;50.150;11.070;2022-10-24T11:18:10;5.18;;;2.53;;
48522;SDS011;34315;50.150;11.070;2022-10-24T11:28:28;14.88;;;6.15;;
48522;SDS011;34315;50.150;11.070;2022-10-24T11:33:38;9.18;;;3.75;;
48522;SDS011;34315;50.150;11.070;2022-10-24T11:39:16;8.65;;;2.63;;
48522;SDS011;34315;50.150;11.070;2022-10-24T11:44:37;7.85;;;2.33;;
48522;SDS011;34315;50.150;11.070;2022-10-24T11:49:44;6.10;;;1.90;;
48522;SDS011;34315;50.150;11.070;2022-10-24T11:54:52;6.43;;;2.42;;
48522;SDS011;34315;50.150;11.070;2022-10-24T11:59:56;7.60;;;2.40;;
48522;SDS011;34315;50.150;11.070;2022-10-24T12:05:00;5.85;;;2.47;;
48522;SDS011;34315;50.150;11.070;2022-10-24T12:20:59;7.38;;;2.20;;
48522;SDS011;34315;50.150;11.070;2022-10-24T12:26:05;6.43;;;2.53;;
48522;SDS011;34315;50.150;11.070;2022-10-24T12:36:13;7.13;;;2.42;;
48522;SDS011;34315;50.150;11.070;2022-10-24T12:51:37;8.05;;;2.20;;
48522;SDS011;34315;50.150;11.070;2022-10-24T13:02:06;7.78;;;1.90;;
48522;SDS011;34315;50.150;11.070;2022-10-24T13:07:17;5.60;;;2.13;;
48522;SDS011;34315;50.150;11.070;2022-10-24T13:23:38;6.90;;;1.92;;
48522;SDS011;34315;50.150;11.070;2022-10-24T13:28:39;4.63;;;1.67;;
48522;SDS011;34315;50.150;11.070;2022-10-24T13:33:41;6.65;;;1.65;;
48522;SDS011;34315;50.150;11.070;2022-10-24T13:43:52;7.05;;;2.15;;
48522;SDS011;34315;50.150;11.070;2022-10-24T13:48:56;5.43;;;2.70;;
48522;SDS011;34315;50.150;11.070;2022-10-24T13:54:00;5.53;;;1.80;;
48522;SDS011;34315;50.150;11.070;2022-10-24T13:59:03;5.43;;;2.35;;
48522;SDS011;34315;50.150;11.070;2022-10-24T14:04:03;5.88;;;2.00;;
48522;SDS011;34315;50.150;11.070;2022-10-24T14:09:06;8.55;;;2.05;;
48522;SDS011;34315;50.150;11.070;2022-10-24T14:14:51;9.98;;;2.53;;
48522;SDS011;34315;50.150;11.070;2022-10-24T14:19:37;6.00;;;2.35;;
48522;SDS011;34315;50.150;11.070;2022-10-24T14:24:42;6.43;;;1.90;;
48522;SDS011;34315;50.150;11.070;2022-10-24T14:29:49;5.65;;;2.30;;
48522;SDS011;34315;50.150;11.070;2022-10-24T14:34:52;8.50;;;2.30;;
48522;SDS011;34315;50.150;11.070;2022-10-24T14:39:54;8.30;;;2.33;;
48522;SDS011;34315;50.150;11.070;2022-10-24T14:44:55;7.55;;;2.40;;
48522;SDS011;34315;50.150;11.070;2022-10-24T14:49:56;6.00;;;2.15;;
48522;SDS011;34315;50.150;11.070;2022-10-24T14:54:58;7.05;;;1.98;;
48522;SDS011;34315;50.150;11.070;2022-10-24T15:00:02;7.80;;;3.10;;
48522;SDS011;34315;50.150;11.070;2022-10-24T15:10:25;8.57;;;2.45;;
48522;SDS011;34315;50.150;11.070;2022-10-24T15:15:31;8.05;;;2.72;;
48522;SDS011;34315;50.150;11.070;2022-10-24T15:20:34;8.68;;;3.35;;
48522;SDS011;34315;50.150;11.070;2022-10-24T15:25:36;10.90;;;2.70;;
48522;SDS011;34315;50.150;11.070;2022-10-24T15:30:37;9.00;;;2.25;;
48522;SDS011;34315;50.150;11.070;2022-10-24T15:35:38;4.80;;;2.00;;
48522;SDS011;34315;50.150;11.070;2022-10-24T15:40:40;10.90;;;4.18;;
48522;SDS011;34315;50.150;11.070;2022-10-24T15:45:42;7.38;;;3.53;;
48522;SDS011;34315;50.150;11.070;2022-10-24T15:50:44;7.32;;;2.20;;
48522;SDS011;34315;50.150;11.070;2022-10-24T15:55:45;10.35;;;4.70;;
48522;SDS011;34315;50.150;11.070;2022-10-24T16:00:45;7.85;;;2.20;;
48522;SDS011;34315;50.150;11.070;2022-10-24T16:05:47;5.45;;;2.10;;
48522;SDS011;34315;50.150;11.070;2022-10-24T16:10:51;5.72;;;2.08;;
48522;SDS011;34315;50.150;11.070;2022-10-24T16:15:52;6.38;;;2.13;;
48522;SDS011;34315;50.150;11.070;2022-10-24T16:20:53;6.47;;;2.35;;
48522;SDS011;34315;50.150;11.070;2022-10-24T16:25:53;10.15;;;2.13;;
48522;SDS011;34315;50.150;11.070;2022-10-24T16:30:53;6.50;;;1.98;;
48522;SDS011;34315;50.150;11.070;2022-10-24T16:35:54;11.50;;;2.50;;
48522;SDS011;34315;50.150;11.070;2022-10-24T16:40:54;6.82;;;2.40;;
48522;SDS011;34315;50.150;11.070;2022-10-24T16:45:56;7.97;;;2.50;;
48522;SDS011;34315;50.150;11.070;2022-10-24T16:50:57;10.40;;;2.25;;
48522;SDS011;34315;50.150;11.070;2022-10-24T16:55:57;8.77;;;2.55;;
48522;SDS011;34315;50.150;11.070;2022-10-24T17:01:03;5.13;;;1.98;;
48522;SDS011;34315;50.150;11.070;2022-10-24T17:06:07;6.95;;;2.13;;
48522;SDS011;34315;50.150;11.070;2022-10-24T17:11:08;5.57;;;2.53;;
48522;SDS011;34315;50.150;11.070;2022-10-24T17:16:10;4.20;;;2.03;;
48522;SDS011;34315;50.150;11.070;2022-10-24T17:21:10;7.43;;;2.53;;
48522;SDS011;34315;50.150;11.070;2022-10-24T17:26:13;7.80;;;2.53;;
48522;SDS011;34315;50.150;11.070;2022-10-24T17:31:14;8.15;;;2.30;;
48522;SDS011;34315;50.150;11.070;2022-10-24T17:36:18;6.90;;;2.53;;
48522;SDS011;34315;50.150;11.070;2022-10-24T17:41:25;7.32;;;2.65;;
48522;SDS011;34315;50.150;11.070;2022-10-24T17:46:27;5.63;;;2.63;;
48522;SDS011;34315;50.150;11.070;2022-10-24T17:51:27;7.43;;;2.30;;
48522;SDS011;34315;50.150;11.070;2022-10-24T17:56:27;7.53;;;2.45;;
48522;SDS011;34315;50.150;11.070;2022-10-24T18:01:28;5.25;;;2.10;;
48522;SDS011;34315;50.150;11.070;2022-10-24T18:06:28;9.75;;;2.90;;
48522;SDS011;34315;50.150;11.070;2022-10-24T18:11:29;5.55;;;2.90;;
48522;SDS011;34315;50.150;11.070;2022-10-24T18:16:29;5.32;;;2.17;;
48522;SDS011;34315;50.150;11.070;2022-10-24T18:21:30;4.03;;;1.90;;
48522;SDS011;34315;50.150;11.070;2022-10-24T18:26:30;4.93;;;2.10;;
48522;SDS011;34315;50.150;11.070;2022-10-24T18:31:31;7.13;;;2.40;;
48522;SDS011;34315;50.150;11.070;2022-10-24T18:36:33;6.20;;;2.50;;
48522;SDS011;34315;50.150;11.070;2022-10-24T18:41:35;7.32;;;2.30;;
48522;SDS011;34315;50.150;11.070;2022-10-24T18:46:39;9.05;;;2.20;;
48522;SDS011;34315;50.150;11.070;2022-10-24T18:51:40;4.93;;;2.47;;
48522;SDS011;34315;50.150;11.070;2022-10-24T18:56:49;7.82;;;2.80;;
48522;SDS011;34315;50.150;11.070;2022-10-24T19:06:59;6.18;;;2.42;;
48522;SDS011;34315;50.150;11.070;2022-10-24T19:12:02;5.50;;;2.40;;
48522;SDS011;34315;50.150;11.070;2022-10-24T19:17:02;5.70;;;2.20;;
48522;SDS011;34315;50.150;11.070;2022-10-24T19:22:03;4.97;;;2.03;;
48522;SDS011;34315;50.150;11.070;2022-10-24T19:27:03;5.82;;;1.80;;
48522;SDS011;34315;50.150;11.070;2022-10-24T19:32:04;6.55;;;2.10;;
48522;SDS011;34315;50.150;11.070;2022-10-24T19:37:04;4.38;;;2.47;;
48522;SDS011;34315;50.150;11.070;2022-10-24T19:42:06;7.53;;;2.20;;
48522;SDS011;34315;50.150;11.070;2022-10-24T19:47:07;4.30;;;1.95;;
48522;SDS011;34315;50.150;11.070;2022-10-24T19:52:07;8.65;;;2.05;;
48522;SDS011;34315;50.150;11.070;2022-10-24T19:57:08;4.55;;;2.55;;
48522;SDS011;34315;50.150;11.070;2022-10-24T20:02:10;8.68;;;2.38;;
48522;SDS011;34315;50.150;11.070;2022-10-24T20:07:11;7.75;;;2.20;;
48522;SDS011;34315;50.150;11.070;2022-10-24T20:12:16;4.70;;;2.22;;
48522;SDS011;34315;50.150;11.070;2022-10-24T20:17:16;7.32;;;1.92;;
48522;SDS011;34315;50.150;11.070;2022-10-24T20:22:17;7.53;;;2.53;;
48522;SDS011;34315;50.150;11.070;2022-10-24T20:27:17;4.70;;;2.38;;
48522;SDS011;34315;50.150;11.070;2022-10-24T20:32:18;4.88;;;2.50;;
48522;SDS011;34315;50.150;11.070;2022-10-24T20:37:19;7.05;;;2.03;;
48522;SDS011;34315;50.150;11.070;2022-10-24T20:42:19;6.53;;;2.30;;
48522;SDS011;34315;50.150;11.070;2022-10-24T20:47:21;3.95;;;2.17;;
48522;SDS011;34315;50.150;11.070;2022-10-24T20:52:21;5.47;;;2.03;;
48522;SDS011;34315;50.150;11.070;2022-10-24T20:57:22;8.10;;;2.03;;
48522;SDS011;34315;50.150;11.070;2022-10-24T21:02:22;7.82;;;2.25;;
48522;SDS011;34315;50.150;11.070;2022-10-24T21:07:22;6.97;;;2.85;;
48522;SDS011;34315;50.150;11.070;2022-10-24T21:12:23;7.10;;;2.42;;
48522;SDS011;34315;50.150;11.070;2022-10-24T21:17:23;8.75;;;2.50;;
48522;SDS011;34315;50.150;11.070;2022-10-24T21:22:26;8.65;;;2.40;;
48522;SDS011;34315;50.150;11.070;2022-10-24T21:27:27;8.30;;;2.63;;
48522;SDS011;34315;50.150;11.070;2022-10-24T21:32:27;4.75;;;2.10;;
48522;SDS011;34315;50.150;11.070;2022-10-24T21:37:31;6.43;;;2.40;;
48522;SDS011;34315;50.150;11.070;2022-10-24T21:42:33;7.75;;;2.42;;
48522;SDS011;34315;50.150;11.070;2022-10-24T21:47:33;8.73;;;2.95;;
48522;SDS011;34315;50.150;11.070;2022-10-24T21:52:34;8.10;;;3.28;;
48522;SDS011;34315;50.150;11.070;2022-10-24T21:57:34;7.32;;;2.67;;
48522;SDS011;34315;50.150;11.070;2022-10-24T22:02:34;6.25;;;2.38;;
48522;SDS011;34315;50.150;11.070;2022-10-24T22:07:35;5.40;;;2.80;;
48522;SDS011;34315;50.150;11.070;2022-10-24T22:12:35;5.55;;;2.45;;
48522;SDS011;34315;50.150;11.070;2022-10-24T22:17:35;4.10;;;2.30;;
48522;SDS011;34315;50.150;11.070;2022-10-24T22:22:36;7.95;;;2.38;;
48522;SDS011;34315;50.150;11.070;2022-10-24T22:27:36;13.18;;;3.33;;
48522;SDS011;34315;50.150;11.070;2022-10-24T22:32:37;5.90;;;2.75;;
48522;SDS011;34315;50.150;11.070;2022-10-24T22:37:37;7.40;;;2.53;;
48522;SDS011;34315;50.150;11.070;2022-10-24T22:42:38;7.35;;;2.42;;
48522;SDS011;34315;50.150;11.070;2022-10-24T22:47:48;10.45;;;2.85;;
48522;SDS011;34315;50.150;11.070;2022-10-24T22:53:12;6.53;;;2.20;;
48522;SDS011;34315;50.150;11.070;2022-10-24T22:58:13;6.30;;;1.83;;
48522;SDS011;34315;50.150;11.070;2022-10-24T23:08:31;5.50;;;1.97;;
48522;SDS011;34315;50.150;11.070;2022-10-24T23:13:35;4.93;;;1.52;;
48522;SDS011;34315;50.150;11.070;2022-10-24T23:18:36;5.15;;;1.52;;
48522;SDS011;34315;50.150;11.070;2022-10-24T23:23:37;4.00;;;1.60;;
48522;SDS011;34315;50.150;11.070;2022-10-24T23:34:13;4.93;;;1.87;;
48522;SDS011;34315;50.150;11.070;2022-10-24T23:39:14;4.80;;;1.63;;
48522;SDS011;34315;50.150;11.070;2022-10-24T23:44:15;15.13;;;6.00;;
48522;SDS011;34315;50.150;11.070;2022-10-24T23:49:24;7.10;;;2.83;;
48522;SDS011;34315;50.150;11.070;2022-10-24T23:54:28;6.03;;;1.55;;
48522;SDS011;34315;50.150;11.070;2022-10-24T23:59:30;12.60;;;3.35;;
